createdAt,value
2018-11-22T12:24:01.417Z,101339.28
2018-11-22T12:32:22.422Z,101328.31
2018-11-22T12:40:43.426Z,101323.54
2018-11-22T12:49:04.431Z,101313.48
2018-11-22T12:57:25.457Z,101314.86
2018-11-22T13:05:46.439Z,101311.91
2018-11-22T13:14:07.526Z,101310.74
2018-11-22T13:22:28.515Z,101300.83
2018-11-22T13:30:49.520Z,101307.24
2018-11-22T13:39:10.637Z,101298.73
2018-11-22T13:47:31.637Z,101301.18
2018-11-22T13:55:52.657Z,101302.46
2018-11-22T14:04:13.676Z,101301.37
2018-11-22T14:12:34.682Z,101298.23
2018-11-22T14:20:55.672Z,101297.18
2018-11-22T14:29:16.674Z,101298.67
2018-11-22T14:37:37.679Z,101296.89
2018-11-22T14:45:58.677Z,101299.91
2018-11-22T14:54:19.662Z,101298.44
2018-11-22T15:02:40.681Z,101298.91
2018-11-22T15:11:01.682Z,101297.05
2018-11-22T15:19:22.711Z,101294.50
2018-11-22T15:27:43.717Z,101288.11
2018-11-22T15:36:04.695Z,101293.38
2018-11-22T15:44:25.695Z,101293.41
2018-11-22T15:52:46.722Z,101287.77
2018-11-22T16:01:07.801Z,101293.48
2018-11-22T16:09:28.801Z,101295.67
2018-11-22T16:17:50.063Z,101304.10
2018-11-22T16:26:11.097Z,101311.25
2018-11-22T16:34:32.098Z,101302.17
2018-11-22T16:42:53.090Z,101308.23
2018-11-22T16:51:14.125Z,101312.84
2018-11-22T16:59:35.188Z,101326.33
2018-11-22T17:07:56.205Z,101324.63
2018-11-22T17:16:17.224Z,101327.22
2018-11-22T17:24:38.242Z,101331.46
2018-11-22T17:32:59.273Z,101321.65
2018-11-22T17:41:20.313Z,101329.91
2018-11-22T17:49:41.442Z,101330.62
2018-11-22T17:58:02.466Z,101343.85
2018-11-22T18:06:23.480Z,101338.81
2018-11-22T18:14:44.573Z,101340.74
2018-11-22T18:23:06.497Z,101343.67
2018-11-22T18:31:26.660Z,101353.27
2018-11-22T18:39:47.643Z,101345.91
2018-11-22T18:48:08.653Z,101353.60
2018-11-22T18:56:29.646Z,101359.98
2018-11-22T19:04:50.643Z,101367.51
2018-11-22T19:13:11.719Z,101361.56
2018-11-22T19:21:32.734Z,101373.50
2018-11-22T19:29:53.768Z,101369.18
2018-11-22T19:38:14.786Z,101373.48
2018-11-22T19:46:35.788Z,101371.80
2018-11-22T19:54:56.990Z,101374.82
2018-11-22T20:03:18.013Z,101389.82
2018-11-22T20:11:39.007Z,101390.70
2018-11-22T20:20:00.020Z,101391.78
2018-11-22T20:28:21.016Z,101395.29
2018-11-22T20:36:42.014Z,101396.02
2018-11-22T20:45:03.010Z,101393.19
2018-11-22T20:53:24.017Z,101391.88
2018-11-22T21:01:45.069Z,101394.98
2018-11-22T21:10:06.071Z,101388.27
2018-11-22T21:18:27.053Z,101380.91
2018-11-22T21:26:48.070Z,101375.80
2018-11-22T21:35:09.066Z,101375.70
2018-11-22T21:43:30.070Z,101383.06
2018-11-22T21:51:51.107Z,101379.05
2018-11-22T22:00:12.107Z,101377.62
2018-11-22T22:08:33.194Z,101374.80
2018-11-22T22:16:54.205Z,101377.80
2018-11-22T22:25:15.317Z,101373.98
2018-11-22T22:33:36.327Z,101373.55
2018-11-22T22:41:57.341Z,101367.98
2018-11-22T22:50:18.319Z,101365.64
2018-11-22T22:58:39.299Z,101359.79
2018-11-22T23:07:00.334Z,101361.34
2018-11-22T23:15:21.316Z,101367.07
2018-11-22T23:23:42.338Z,101373.63
2018-11-22T23:32:03.353Z,101378.42
2018-11-22T23:40:24.358Z,101384.36
2018-11-22T23:48:45.363Z,101386.42
2018-11-22T23:57:06.379Z,101391.70
